sensor_id;sensor_type;location;lat;lon;timestamp;P1;durP1;ratioP1;P2;durP2;ratioP2
21816;SDS011;13247;47.504;7.382;2023-05-29T00:00:16;7.57;;;3.65;;
21816;SDS011;13247;47.504;7.382;2023-05-29T00:03:01;8.45;;;4.18;;
21816;SDS011;13247;47.504;7.382;2023-05-29T00:05:48;8.05;;;3.58;;
21816;SDS011;13247;47.504;7.382;2023-05-29T00:08:36;9.63;;;4.28;;
21816;SDS011;13247;47.504;7.382;2023-05-29T00:11:20;9.85;;;4.28;;
21816;SDS011;13247;47.504;7.382;2023-05-29T00:14:06;7.75;;;3.72;;
21816;SDS011;13247;47.504;7.382;2023-05-29T00:16:51;7.72;;;3.65;;
21816;SDS011;13247;47.504;7.382;2023-05-29T00:19:36;6.20;;;3.60;;
21816;SDS011;13247;47.504;7.382;2023-05-29T00:22:20;8.07;;;4.10;;
21816;SDS011;13247;47.504;7.382;2023-05-29T00:25:05;8.98;;;4.38;;
21816;SDS011;13247;47.504;7.382;2023-05-29T00:27:51;7.65;;;3.95;;
21816;SDS011;13247;47.504;7.382;2023-05-29T00:30:35;8.18;;;3.75;;
21816;SDS011;13247;47.504;7.382;2023-05-29T00:33:20;6.15;;;3.40;;
21816;SDS011;13247;47.504;7.382;2023-05-29T00:36:04;10.32;;;4.13;;
21816;SDS011;13247;47.504;7.382;2023-05-29T00:38:52;7.60;;;3.72;;
21816;SDS011;13247;47.504;7.382;2023-05-29T00:41:36;8.55;;;3.75;;
21816;SDS011;13247;47.504;7.382;2023-05-29T00:44:21;8.25;;;3.88;;
21816;SDS011;13247;47.504;7.382;2023-05-29T00:47:07;6.15;;;3.65;;
21816;SDS011;13247;47.504;7.382;2023-05-29T00:49:52;10.02;;;4.20;;
21816;SDS011;13247;47.504;7.382;2023-05-29T00:52:40;8.73;;;3.70;;
21816;SDS011;13247;47.504;7.382;2023-05-29T00:55:27;5.95;;;3.95;;
21816;SDS011;13247;47.504;7.382;2023-05-29T00:58:13;8.23;;;4.20;;
21816;SDS011;13247;47.504;7.382;2023-05-29T01:00:58;9.63;;;3.60;;
21816;SDS011;13247;47.504;7.382;2023-05-29T01:03:44;6.63;;;3.28;;
21816;SDS011;13247;47.504;7.382;2023-05-29T01:06:32;6.68;;;4.40;;
21816;SDS011;13247;47.504;7.382;2023-05-29T01:09:17;10.02;;;4.05;;
21816;SDS011;13247;47.504;7.382;2023-05-29T01:15:52;6.80;;;3.45;;
21816;SDS011;13247;47.504;7.382;2023-05-29T01:22:06;8.88;;;3.58;;
21816;SDS011;13247;47.504;7.382;2023-05-29T01:28:09;9.13;;;4.93;;
21816;SDS011;13247;47.504;7.382;2023-05-29T01:30:56;7.72;;;4.20;;
21816;SDS011;13247;47.504;7.382;2023-05-29T01:33:46;11.10;;;3.83;;
21816;SDS011;13247;47.504;7.382;2023-05-29T01:36:39;8.43;;;4.22;;
21816;SDS011;13247;47.504;7.382;2023-05-29T01:39:25;7.05;;;3.88;;
21816;SDS011;13247;47.504;7.382;2023-05-29T01:42:11;8.75;;;4.22;;
21816;SDS011;13247;47.504;7.382;2023-05-29T01:44:57;10.77;;;4.10;;
21816;SDS011;13247;47.504;7.382;2023-05-29T01:47:42;8.95;;;4.22;;
21816;SDS011;13247;47.504;7.382;2023-05-29T01:50:27;6.95;;;4.03;;
21816;SDS011;13247;47.504;7.382;2023-05-29T01:53:14;9.05;;;4.00;;
21816;SDS011;13247;47.504;7.382;2023-05-29T01:55:58;6.00;;;4.07;;
21816;SDS011;13247;47.504;7.382;2023-05-29T01:58:44;8.68;;;4.07;;
21816;SDS011;13247;47.504;7.382;2023-05-29T02:01:30;7.45;;;3.58;;
21816;SDS011;13247;47.504;7.382;2023-05-29T02:04:16;9.65;;;4.90;;
21816;SDS011;13247;47.504;7.382;2023-05-29T02:07:00;6.68;;;3.80;;
21816;SDS011;13247;47.504;7.382;2023-05-29T02:09:46;9.30;;;3.78;;
21816;SDS011;13247;47.504;7.382;2023-05-29T02:12:30;8.77;;;4.40;;
21816;SDS011;13247;47.504;7.382;2023-05-29T02:15:15;6.70;;;3.63;;
21816;SDS011;13247;47.504;7.382;2023-05-29T02:18:00;8.98;;;3.60;;
21816;SDS011;13247;47.504;7.382;2023-05-29T02:20:44;8.48;;;3.92;;
21816;SDS011;13247;47.504;7.382;2023-05-29T02:23:30;8.13;;;3.95;;
21816;SDS011;13247;47.504;7.382;2023-05-29T02:26:14;7.40;;;3.78;;
21816;SDS011;13247;47.504;7.382;2023-05-29T02:28:59;11.65;;;3.72;;
21816;SDS011;13247;47.504;7.382;2023-05-29T02:31:44;8.30;;;4.10;;
21816;SDS011;13247;47.504;7.382;2023-05-29T02:34:28;9.10;;;4.57;;
21816;SDS011;13247;47.504;7.382;2023-05-29T02:37:13;9.20;;;4.40;;
21816;SDS011;13247;47.504;7.382;2023-05-29T02:39:57;8.52;;;4.00;;
21816;SDS011;13247;47.504;7.382;2023-05-29T02:42:42;9.25;;;4.13;;
21816;SDS011;13247;47.504;7.382;2023-05-29T02:45:27;7.22;;;4.25;;
21816;SDS011;13247;47.504;7.382;2023-05-29T02:48:11;7.68;;;3.92;;
21816;SDS011;13247;47.504;7.382;2023-05-29T02:50:56;7.60;;;3.70;;
21816;SDS011;13247;47.504;7.382;2023-05-29T02:53:40;6.65;;;4.00;;
21816;SDS011;13247;47.504;7.382;2023-05-29T02:56:25;9.77;;;4.45;;
21816;SDS011;13247;47.504;7.382;2023-05-29T02:59:10;13.25;;;4.60;;
21816;SDS011;13247;47.504;7.382;2023-05-29T03:01:54;7.35;;;4.07;;
21816;SDS011;13247;47.504;7.382;2023-05-29T03:04:39;9.18;;;4.40;;
21816;SDS011;13247;47.504;7.382;2023-05-29T03:07:24;7.47;;;4.32;;
21816;SDS011;13247;47.504;7.382;2023-05-29T03:10:09;8.05;;;4.25;;
21816;SDS011;13247;47.504;7.382;2023-05-29T03:12:53;6.90;;;4.05;;
21816;SDS011;13247;47.504;7.382;2023-05-29T03:15:39;7.53;;;4.28;;
21816;SDS011;13247;47.504;7.382;2023-05-29T03:18:23;10.27;;;4.32;;
21816;SDS011;13247;47.504;7.382;2023-05-29T03:21:08;12.25;;;4.47;;
21816;SDS011;13247;47.504;7.382;2023-05-29T03:23:53;7.78;;;4.38;;
21816;SDS011;13247;47.504;7.382;2023-05-29T03:26:37;7.97;;;4.18;;
21816;SDS011;13247;47.504;7.382;2023-05-29T03:29:21;8.50;;;4.40;;
21816;SDS011;13247;47.504;7.382;2023-05-29T03:32:06;10.77;;;3.97;;
21816;SDS011;13247;47.504;7.382;2023-05-29T03:34:51;8.20;;;4.20;;
21816;SDS011;13247;47.504;7.382;2023-05-29T03:37:36;10.60;;;4.68;;
21816;SDS011;13247;47.504;7.382;2023-05-29T03:40:20;8.63;;;4.55;;
21816;SDS011;13247;47.504;7.382;2023-05-29T03:43:05;6.57;;;3.88;;
21816;SDS011;13247;47.504;7.382;2023-05-29T03:45:49;8.48;;;4.22;;
21816;SDS011;13247;47.504;7.382;2023-05-29T03:48:34;7.25;;;3.83;;
21816;SDS011;13247;47.504;7.382;2023-05-29T03:51:18;8.73;;;3.72;;
21816;SDS011;13247;47.504;7.382;2023-05-29T03:54:03;7.10;;;3.95;;
21816;SDS011;13247;47.504;7.382;2023-05-29T03:56:48;13.57;;;4.65;;
21816;SDS011;13247;47.504;7.382;2023-05-29T03:59:33;10.20;;;4.47;;
21816;SDS011;13247;47.504;7.382;2023-05-29T04:02:18;6.55;;;3.58;;
21816;SDS011;13247;47.504;7.382;2023-05-29T04:05:03;11.43;;;4.28;;
21816;SDS011;13247;47.504;7.382;2023-05-29T04:07:49;11.73;;;4.47;;
21816;SDS011;13247;47.504;7.382;2023-05-29T04:10:35;7.45;;;3.80;;
21816;SDS011;13247;47.504;7.382;2023-05-29T04:13:20;10.68;;;4.50;;
21816;SDS011;13247;47.504;7.382;2023-05-29T04:16:05;11.15;;;4.82;;
21816;SDS011;13247;47.504;7.382;2023-05-29T04:18:50;11.13;;;4.05;;
21816;SDS011;13247;47.504;7.382;2023-05-29T04:21:35;13.00;;;4.18;;
21816;SDS011;13247;47.504;7.382;2023-05-29T04:24:19;6.07;;;3.63;;
21816;SDS011;13247;47.504;7.382;2023-05-29T04:27:03;10.05;;;3.85;;
21816;SDS011;13247;47.504;7.382;2023-05-29T04:29:49;13.05;;;3.53;;
21816;SDS011;13247;47.504;7.382;2023-05-29T04:32:33;11.57;;;4.63;;
21816;SDS011;13247;47.504;7.382;2023-05-29T04:35:18;8.57;;;4.15;;
21816;SDS011;13247;47.504;7.382;2023-05-29T04:38:03;9.23;;;4.05;;
21816;SDS011;13247;47.504;7.382;2023-05-29T04:40:48;11.00;;;5.38;;
21816;SDS011;13247;47.504;7.382;2023-05-29T04:43:36;22.05;;;5.38;;
21816;SDS011;13247;47.504;7.382;2023-05-29T04:46:24;7.93;;;4.13;;
21816;SDS011;13247;47.504;7.382;2023-05-29T04:49:10;9.07;;;4.95;;
21816;SDS011;13247;47.504;7.382;2023-05-29T04:51:56;8.98;;;4.70;;
21816;SDS011;13247;47.504;7.382;2023-05-29T04:54:44;7.72;;;4.40;;
21816;SDS011;13247;47.504;7.382;2023-05-29T04:57:28;10.82;;;4.85;;
21816;SDS011;13247;47.504;7.382;2023-05-29T05:00:13;9.32;;;4.10;;
21816;SDS011;13247;47.504;7.382;2023-05-29T05:02:58;7.68;;;4.00;;
21816;SDS011;13247;47.504;7.382;2023-05-29T05:05:42;9.55;;;4.20;;
21816;SDS011;13247;47.504;7.382;2023-05-29T05:08:28;8.77;;;4.10;;
21816;SDS011;13247;47.504;7.382;2023-05-29T05:11:14;12.43;;;4.65;;
21816;SDS011;13247;47.504;7.382;2023-05-29T05:13:59;11.57;;;5.25;;
21816;SDS011;13247;47.504;7.382;2023-05-29T05:16:43;12.48;;;4.75;;
21816;SDS011;13247;47.504;7.382;2023-05-29T05:19:28;13.63;;;4.38;;
21816;SDS011;13247;47.504;7.382;2023-05-29T05:22:14;37.60;;;15.70;;
21816;SDS011;13247;47.504;7.382;2023-05-29T05:24:59;49.17;;;21.13;;
21816;SDS011;13247;47.504;7.382;2023-05-29T05:27:44;41.83;;;18.15;;
21816;SDS011;13247;47.504;7.382;2023-05-29T05:30:29;33.22;;;16.05;;
21816;SDS011;13247;47.504;7.382;2023-05-29T05:33:14;15.20;;;6.38;;
21816;SDS011;13247;47.504;7.382;2023-05-29T05:35:58;15.85;;;8.15;;
21816;SDS011;13247;47.504;7.382;2023-05-29T05:38:44;11.63;;;4.95;;
21816;SDS011;13247;47.504;7.382;2023-05-29T05:41:29;11.50;;;5.03;;
21816;SDS011;13247;47.504;7.382;2023-05-29T05:44:14;11.02;;;4.90;;
21816;SDS011;13247;47.504;7.382;2023-05-29T05:46:58;12.07;;;4.70;;
21816;SDS011;13247;47.504;7.382;2023-05-29T05:49:43;8.57;;;4.63;;
21816;SDS011;13247;47.504;7.382;2023-05-29T05:52:28;9.95;;;5.43;;
21816;SDS011;13247;47.504;7.382;2023-05-29T05:55:16;13.05;;;4.82;;
21816;SDS011;13247;47.504;7.382;2023-05-29T05:58:00;10.38;;;5.43;;
21816;SDS011;13247;47.504;7.382;2023-05-29T06:00:45;10.02;;;5.15;;
21816;SDS011;13247;47.504;7.382;2023-05-29T06:03:29;13.02;;;5.03;;
21816;SDS011;13247;47.504;7.382;2023-05-29T06:06:16;11.48;;;5.22;;
21816;SDS011;13247;47.504;7.382;2023-05-29T06:09:01;10.00;;;4.93;;
21816;SDS011;13247;47.504;7.382;2023-05-29T06:11:47;9.32;;;4.53;;
21816;SDS011;13247;47.504;7.382;2023-05-29T06:14:32;12.90;;;4.82;;
21816;SDS011;13247;47.504;7.382;2023-05-29T06:17:16;14.60;;;5.82;;
21816;SDS011;13247;47.504;7.382;2023-05-29T06:20:01;21.33;;;6.03;;
21816;SDS011;13247;47.504;7.382;2023-05-29T06:22:52;15.98;;;5.53;;
21816;SDS011;13247;47.504;7.382;2023-05-29T06:25:36;11.52;;;4.85;;
21816;SDS011;13247;47.504;7.382;2023-05-29T06:28:21;11.38;;;5.88;;
21816;SDS011;13247;47.504;7.382;2023-05-29T06:31:06;17.48;;;6.18;;
21816;SDS011;13247;47.504;7.382;2023-05-29T06:33:51;12.20;;;6.50;;
21816;SDS011;13247;47.504;7.382;2023-05-29T06:36:35;11.25;;;5.53;;
21816;SDS011;13247;47.504;7.382;2023-05-29T06:39:20;14.20;;;5.25;;
21816;SDS011;13247;47.504;7.382;2023-05-29T06:42:05;15.73;;;5.70;;
21816;SDS011;13247;47.504;7.382;2023-05-29T06:44:49;13.02;;;5.32;;
21816;SDS011;13247;47.504;7.382;2023-05-29T06:47:34;13.82;;;5.45;;
21816;SDS011;13247;47.504;7.382;2023-05-29T06:50:18;9.32;;;4.93;;
21816;SDS011;13247;47.504;7.382;2023-05-29T06:53:03;10.15;;;5.13;;
21816;SDS011;13247;47.504;7.382;2023-05-29T06:55:48;11.93;;;4.88;;
21816;SDS011;13247;47.504;7.382;2023-05-29T06:58:33;10.32;;;5.22;;
21816;SDS011;13247;47.504;7.382;2023-05-29T07:01:18;13.70;;;5.50;;
21816;SDS011;13247;47.504;7.382;2023-05-29T07:04:03;8.32;;;5.25;;
21816;SDS011;13247;47.504;7.382;2023-05-29T07:06:48;12.35;;;5.32;;
21816;SDS011;13247;47.504;7.382;2023-05-29T07:09:32;13.02;;;5.35;;
21816;SDS011;13247;47.504;7.382;2023-05-29T07:12:18;10.48;;;4.80;;
21816;SDS011;13247;47.504;7.382;2023-05-29T07:15:02;12.68;;;5.13;;
21816;SDS011;13247;47.504;7.382;2023-05-29T07:17:47;10.65;;;5.53;;
21816;SDS011;13247;47.504;7.382;2023-05-29T07:20:32;12.95;;;5.15;;
21816;SDS011;13247;47.504;7.382;2023-05-29T07:23:17;11.40;;;5.07;;
21816;SDS011;13247;47.504;7.382;2023-05-29T07:26:01;12.68;;;6.07;;
21816;SDS011;13247;47.504;7.382;2023-05-29T07:28:46;13.82;;;5.43;;
21816;SDS011;13247;47.504;7.382;2023-05-29T07:31:30;10.52;;;4.88;;
21816;SDS011;13247;47.504;7.382;2023-05-29T07:34:15;10.35;;;5.03;;
21816;SDS011;13247;47.504;7.382;2023-05-29T07:37:01;12.45;;;5.05;;
21816;SDS011;13247;47.504;7.382;2023-05-29T07:39:47;11.63;;;4.75;;
21816;SDS011;13247;47.504;7.382;2023-05-29T07:42:32;8.10;;;4.78;;
21816;SDS011;13247;47.504;7.382;2023-05-29T07:45:17;9.35;;;4.75;;
21816;SDS011;13247;47.504;7.382;2023-05-29T07:48:01;10.23;;;5.18;;
21816;SDS011;13247;47.504;7.382;2023-05-29T07:50:46;13.82;;;4.55;;
21816;SDS011;13247;47.504;7.382;2023-05-29T07:53:31;11.52;;;5.38;;
21816;SDS011;13247;47.504;7.382;2023-05-29T07:56:17;10.45;;;4.95;;
21816;SDS011;13247;47.504;7.382;2023-05-29T07:59:01;11.82;;;4.45;;
21816;SDS011;13247;47.504;7.382;2023-05-29T08:01:46;10.38;;;5.35;;
21816;SDS011;13247;47.504;7.382;2023-05-29T08:04:31;14.40;;;4.70;;
21816;SDS011;13247;47.504;7.382;2023-05-29T08:07:16;10.57;;;4.55;;
21816;SDS011;13247;47.504;7.382;2023-05-29T08:10:01;11.10;;;4.85;;
21816;SDS011;13247;47.504;7.382;2023-05-29T08:12:46;10.63;;;4.18;;
21816;SDS011;13247;47.504;7.382;2023-05-29T08:15:32;13.40;;;4.63;;
21816;SDS011;13247;47.504;7.382;2023-05-29T08:18:18;9.13;;;4.82;;
21816;SDS011;13247;47.504;7.382;2023-05-29T08:21:02;9.95;;;4.38;;
21816;SDS011;13247;47.504;7.382;2023-05-29T08:23:47;10.95;;;4.85;;
21816;SDS011;13247;47.504;7.382;2023-05-29T08:26:32;7.47;;;3.58;;
21816;SDS011;13247;47.504;7.382;2023-05-29T08:29:18;9.57;;;4.72;;
21816;SDS011;13247;47.504;7.382;2023-05-29T08:32:03;8.63;;;4.03;;
21816;SDS011;13247;47.504;7.382;2023-05-29T08:34:48;9.93;;;4.43;;
21816;SDS011;13247;47.504;7.382;2023-05-29T08:37:33;7.72;;;4.45;;
21816;SDS011;13247;47.504;7.382;2023-05-29T08:40:18;7.80;;;4.25;;
21816;SDS011;13247;47.504;7.382;2023-05-29T08:43:08;13.50;;;3.80;;
21816;SDS011;13247;47.504;7.382;2023-05-29T08:46:03;7.47;;;4.10;;
21816;SDS011;13247;47.504;7.382;2023-05-29T08:48:48;8.45;;;4.70;;
21816;SDS011;13247;47.504;7.382;2023-05-29T08:51:36;10.50;;;4.65;;
21816;SDS011;13247;47.504;7.382;2023-05-29T08:54:24;9.55;;;4.68;;
21816;SDS011;13247;47.504;7.382;2023-05-29T08:57:10;12.07;;;4.10;;
21816;SDS011;13247;47.504;7.382;2023-05-29T08:59:56;8.07;;;3.75;;
21816;SDS011;13247;47.504;7.382;2023-05-29T09:02:42;7.78;;;4.40;;
21816;SDS011;13247;47.504;7.382;2023-05-29T09:05:29;10.48;;;4.80;;
21816;SDS011;13247;47.504;7.382;2023-05-29T09:08:15;7.72;;;4.18;;
21816;SDS011;13247;47.504;7.382;2023-05-29T09:11:00;7.65;;;3.70;;
21816;SDS011;13247;47.504;7.382;2023-05-29T09:13:45;7.85;;;3.85;;
21816;SDS011;13247;47.504;7.382;2023-05-29T09:16:30;7.13;;;3.45;;
21816;SDS011;13247;47.504;7.382;2023-05-29T09:19:15;5.90;;;3.88;;
21816;SDS011;13247;47.504;7.382;2023-05-29T09:24:48;9.70;;;4.68;;
21816;SDS011;13247;47.504;7.382;2023-05-29T09:27:38;8.18;;;4.43;;
21816;SDS011;13247;47.504;7.382;2023-05-29T09:30:39;6.00;;;3.35;;
21816;SDS011;13247;47.504;7.382;2023-05-29T09:33:25;8.45;;;3.45;;
21816;SDS011;13247;47.504;7.382;2023-05-29T09:36:11;9.68;;;4.03;;
21816;SDS011;13247;47.504;7.382;2023-05-29T09:39:05;8.27;;;4.05;;
21816;SDS011;13247;47.504;7.382;2023-05-29T09:41:52;6.78;;;3.70;;
21816;SDS011;13247;47.504;7.382;2023-05-29T09:44:42;7.35;;;3.78;;
21816;SDS011;13247;47.504;7.382;2023-05-29T09:47:33;10.60;;;3.60;;
21816;SDS011;13247;47.504;7.382;2023-05-29T09:50:18;8.73;;;3.60;;
21816;SDS011;13247;47.504;7.382;2023-05-29T09:53:17;7.50;;;3.90;;
21816;SDS011;13247;47.504;7.382;2023-05-29T09:56:03;6.63;;;3.83;;
21816;SDS011;13247;47.504;7.382;2023-05-29T09:58:48;6.40;;;3.80;;
21816;SDS011;13247;47.504;7.382;2023-05-29T10:01:35;9.70;;;3.50;;
21816;SDS011;13247;47.504;7.382;2023-05-29T10:04:22;9.10;;;3.55;;
21816;SDS011;13247;47.504;7.382;2023-05-29T10:07:26;6.60;;;3.75;;
21816;SDS011;13247;47.504;7.382;2023-05-29T10:10:15;5.45;;;3.55;;
21816;SDS011;13247;47.504;7.382;2023-05-29T10:13:02;11.70;;;4.07;;
21816;SDS011;13247;47.504;7.382;2023-05-29T10:15:50;7.18;;;3.60;;
21816;SDS011;13247;47.504;7.382;2023-05-29T10:18:38;6.75;;;3.72;;
21816;SDS011;13247;47.504;7.382;2023-05-29T10:21:27;7.25;;;3.70;;
21816;SDS011;13247;47.504;7.382;2023-05-29T10:24:12;7.20;;;3.30;;
21816;SDS011;13247;47.504;7.382;2023-05-29T10:26:57;9.43;;;3.70;;
21816;SDS011;13247;47.504;7.382;2023-05-29T10:29:47;8.45;;;3.88;;
21816;SDS011;13247;47.504;7.382;2023-05-29T10:32:47;7.97;;;3.70;;
21816;SDS011;13247;47.504;7.382;2023-05-29T10:35:55;9.98;;;3.80;;
21816;SDS011;13247;47.504;7.382;2023-05-29T10:38:53;10.77;;;3.50;;
21816;SDS011;13247;47.504;7.382;2023-05-29T10:41:38;6.20;;;3.45;;
21816;SDS011;13247;47.504;7.382;2023-05-29T10:47:22;7.53;;;3.35;;
21816;SDS011;13247;47.504;7.382;2023-05-29T10:50:07;8.40;;;3.33;;
21816;SDS011;13247;47.504;7.382;2023-05-29T10:52:53;6.60;;;3.10;;
21816;SDS011;13247;47.504;7.382;2023-05-29T10:55:39;10.23;;;4.03;;
21816;SDS011;13247;47.504;7.382;2023-05-29T10:58:25;7.88;;;3.30;;
21816;SDS011;13247;47.504;7.382;2023-05-29T11:01:10;7.57;;;3.42;;
21816;SDS011;13247;47.504;7.382;2023-05-29T11:07:05;6.05;;;3.38;;
21816;SDS011;13247;47.504;7.382;2023-05-29T11:09:52;6.38;;;3.03;;
21816;SDS011;13247;47.504;7.382;2023-05-29T11:12:40;9.68;;;4.13;;
21816;SDS011;13247;47.504;7.382;2023-05-29T11:15:41;7.90;;;3.08;;
21816;SDS011;13247;47.504;7.382;2023-05-29T11:18:26;6.63;;;3.40;;
21816;SDS011;13247;47.504;7.382;2023-05-29T11:24:08;10.88;;;4.18;;
21816;SDS011;13247;47.504;7.382;2023-05-29T11:27:07;8.13;;;3.70;;
21816;SDS011;13247;47.504;7.382;2023-05-29T11:29:53;7.45;;;3.60;;
21816;SDS011;13247;47.504;7.382;2023-05-29T11:32:39;7.18;;;3.83;;
21816;SDS011;13247;47.504;7.382;2023-05-29T11:35:26;7.50;;;3.63;;
21816;SDS011;13247;47.504;7.382;2023-05-29T11:38:15;6.57;;;3.38;;
21816;SDS011;13247;47.504;7.382;2023-05-29T11:41:01;5.78;;;3.17;;
21816;SDS011;13247;47.504;7.382;2023-05-29T11:43:56;7.38;;;4.05;;
21816;SDS011;13247;47.504;7.382;2023-05-29T11:46:59;7.22;;;2.95;;
21816;SDS011;13247;47.504;7.382;2023-05-29T11:49:46;5.82;;;3.35;;
21816;SDS011;13247;47.504;7.382;2023-05-29T11:52:31;10.23;;;3.58;;
21816;SDS011;13247;47.504;7.382;2023-05-29T11:55:15;7.00;;;3.25;;
21816;SDS011;13247;47.504;7.382;2023-05-29T11:58:06;5.07;;;2.92;;
21816;SDS011;13247;47.504;7.382;2023-05-29T12:00:51;6.00;;;3.42;;
21816;SDS011;13247;47.504;7.382;2023-05-29T12:03:39;6.88;;;3.47;;
21816;SDS011;13247;47.504;7.382;2023-05-29T12:06:34;5.78;;;3.28;;
21816;SDS011;13247;47.504;7.382;2023-05-29T12:09:28;8.88;;;3.75;;
21816;SDS011;13247;47.504;7.382;2023-05-29T12:12:13;6.47;;;3.13;;
21816;SDS011;13247;47.504;7.382;2023-05-29T12:14:58;9.75;;;3.75;;
21816;SDS011;13247;47.504;7.382;2023-05-29T12:17:43;8.45;;;3.92;;
21816;SDS011;13247;47.504;7.382;2023-05-29T12:20:29;6.50;;;3.20;;
21816;SDS011;13247;47.504;7.382;2023-05-29T12:23:14;9.13;;;3.35;;
21816;SDS011;13247;47.504;7.382;2023-05-29T12:26:02;7.43;;;3.35;;
21816;SDS011;13247;47.504;7.382;2023-05-29T12:28:48;8.68;;;3.28;;
21816;SDS011;13247;47.504;7.382;2023-05-29T12:31:33;6.80;;;3.30;;
21816;SDS011;13247;47.504;7.382;2023-05-29T12:34:18;6.55;;;3.30;;
21816;SDS011;13247;47.504;7.382;2023-05-29T12:37:05;4.75;;;3.00;;
21816;SDS011;13247;47.504;7.382;2023-05-29T12:40:09;5.80;;;2.97;;
21816;SDS011;13247;47.504;7.382;2023-05-29T12:45:54;5.43;;;3.47;;
21816;SDS011;13247;47.504;7.382;2023-05-29T12:48:40;9.18;;;3.50;;
21816;SDS011;13247;47.504;7.382;2023-05-29T12:51:25;5.57;;;2.88;;
21816;SDS011;13247;47.504;7.382;2023-05-29T12:54:11;5.45;;;2.80;;
21816;SDS011;13247;47.504;7.382;2023-05-29T12:56:57;7.53;;;3.00;;
21816;SDS011;13247;47.504;7.382;2023-05-29T12:59:44;7.70;;;3.67;;
21816;SDS011;13247;47.504;7.382;2023-05-29T13:02:29;6.18;;;3.28;;
21816;SDS011;13247;47.504;7.382;2023-05-29T13:05:14;7.97;;;3.40;;
21816;SDS011;13247;47.504;7.382;2023-05-29T13:07:59;6.03;;;3.03;;
21816;SDS011;13247;47.504;7.382;2023-05-29T13:10:44;8.60;;;3.50;;
21816;SDS011;13247;47.504;7.382;2023-05-29T13:13:29;6.05;;;3.78;;
21816;SDS011;13247;47.504;7.382;2023-05-29T13:16:13;7.15;;;3.38;;
21816;SDS011;13247;47.504;7.382;2023-05-29T13:18:58;6.20;;;3.42;;
21816;SDS011;13247;47.504;7.382;2023-05-29T13:21:43;8.18;;;3.53;;
21816;SDS011;13247;47.504;7.382;2023-05-29T13:24:31;8.07;;;3.63;;
21816;SDS011;13247;47.504;7.382;2023-05-29T13:27:16;5.45;;;3.28;;
21816;SDS011;13247;47.504;7.382;2023-05-29T13:30:01;4.97;;;3.25;;
21816;SDS011;13247;47.504;7.382;2023-05-29T13:32:47;8.65;;;3.25;;
21816;SDS011;13247;47.504;7.382;2023-05-29T13:35:34;6.47;;;3.08;;
21816;SDS011;13247;47.504;7.382;2023-05-29T13:38:18;6.93;;;3.08;;
21816;SDS011;13247;47.504;7.382;2023-05-29T13:41:03;6.03;;;3.03;;
21816;SDS011;13247;47.504;7.382;2023-05-29T13:43:48;6.88;;;3.25;;
21816;SDS011;13247;47.504;7.382;2023-05-29T13:46:35;6.28;;;3.50;;
21816;SDS011;13247;47.504;7.382;2023-05-29T13:49:21;7.50;;;3.13;;
21816;SDS011;13247;47.504;7.382;2023-05-29T13:52:05;9.25;;;3.47;;
21816;SDS011;13247;47.504;7.382;2023-05-29T13:54:50;6.90;;;2.88;;
21816;SDS011;13247;47.504;7.382;2023-05-29T13:57:35;17.83;;;3.30;;
21816;SDS011;13247;47.504;7.382;2023-05-29T14:00:20;6.30;;;3.17;;
21816;SDS011;13247;47.504;7.382;2023-05-29T14:03:05;6.63;;;3.10;;
21816;SDS011;13247;47.504;7.382;2023-05-29T14:05:52;6.90;;;2.75;;
21816;SDS011;13247;47.504;7.382;2023-05-29T14:08:36;6.20;;;3.22;;
21816;SDS011;13247;47.504;7.382;2023-05-29T14:11:21;6.13;;;2.90;;
21816;SDS011;13247;47.504;7.382;2023-05-29T14:14:06;6.20;;;2.90;;
21816;SDS011;13247;47.504;7.382;2023-05-29T14:16:51;6.22;;;2.75;;
21816;SDS011;13247;47.504;7.382;2023-05-29T14:19:37;7.22;;;3.33;;
21816;SDS011;13247;47.504;7.382;2023-05-29T14:22:22;7.10;;;3.15;;
21816;SDS011;13247;47.504;7.382;2023-05-29T14:25:07;5.72;;;3.33;;
21816;SDS011;13247;47.504;7.382;2023-05-29T14:27:52;6.35;;;2.90;;
21816;SDS011;13247;47.504;7.382;2023-05-29T14:30:36;6.93;;;3.30;;
21816;SDS011;13247;47.504;7.382;2023-05-29T14:33:21;8.65;;;3.38;;
21816;SDS011;13247;47.504;7.382;2023-05-29T14:36:06;4.82;;;2.85;;
21816;SDS011;13247;47.504;7.382;2023-05-29T14:38:51;7.70;;;3.25;;
21816;SDS011;13247;47.504;7.382;2023-05-29T14:41:36;5.35;;;2.90;;
21816;SDS011;13247;47.504;7.382;2023-05-29T14:44:20;6.07;;;3.13;;
21816;SDS011;13247;47.504;7.382;2023-05-29T14:47:05;5.22;;;2.60;;
21816;SDS011;13247;47.504;7.382;2023-05-29T14:49:50;8.40;;;3.15;;
21816;SDS011;13247;47.504;7.382;2023-05-29T14:52:34;8.15;;;3.08;;
21816;SDS011;13247;47.504;7.382;2023-05-29T14:55:19;5.03;;;3.20;;
21816;SDS011;13247;47.504;7.382;2023-05-29T14:58:04;7.18;;;3.38;;
21816;SDS011;13247;47.504;7.382;2023-05-29T15:00:49;7.60;;;3.20;;
21816;SDS011;13247;47.504;7.382;2023-05-29T15:03:34;6.22;;;2.85;;
21816;SDS011;13247;47.504;7.382;2023-05-29T15:06:18;6.43;;;3.05;;
21816;SDS011;13247;47.504;7.382;2023-05-29T15:09:03;3.97;;;2.70;;
21816;SDS011;13247;47.504;7.382;2023-05-29T15:11:47;7.07;;;3.55;;
21816;SDS011;13247;47.504;7.382;2023-05-29T15:14:32;5.38;;;2.53;;
21816;SDS011;13247;47.504;7.382;2023-05-29T15:17:18;8.23;;;3.00;;
21816;SDS011;13247;47.504;7.382;2023-05-29T15:20:03;5.75;;;2.63;;
21816;SDS011;13247;47.504;7.382;2023-05-29T15:22:48;4.63;;;2.90;;
21816;SDS011;13247;47.504;7.382;2023-05-29T15:25:33;6.63;;;3.05;;
21816;SDS011;13247;47.504;7.382;2023-05-29T15:28:18;5.75;;;3.15;;
21816;SDS011;13247;47.504;7.382;2023-05-29T15:31:03;7.18;;;2.70;;
21816;SDS011;13247;47.504;7.382;2023-05-29T15:33:48;7.07;;;2.90;;
21816;SDS011;13247;47.504;7.382;2023-05-29T15:36:33;8.45;;;2.97;;
21816;SDS011;13247;47.504;7.382;2023-05-29T15:39:20;5.88;;;3.25;;
21816;SDS011;13247;47.504;7.382;2023-05-29T15:42:05;5.45;;;2.85;;
21816;SDS011;13247;47.504;7.382;2023-05-29T15:44:53;7.15;;;2.92;;
21816;SDS011;13247;47.504;7.382;2023-05-29T15:47:39;5.43;;;2.80;;
21816;SDS011;13247;47.504;7.382;2023-05-29T15:50:24;13.68;;;3.30;;
21816;SDS011;13247;47.504;7.382;2023-05-29T15:53:09;7.93;;;3.33;;
21816;SDS011;13247;47.504;7.382;2023-05-29T15:55:54;4.95;;;2.80;;
21816;SDS011;13247;47.504;7.382;2023-05-29T15:58:38;4.28;;;2.72;;
21816;SDS011;13247;47.504;7.382;2023-05-29T16:01:23;7.20;;;3.08;;
21816;SDS011;13247;47.504;7.382;2023-05-29T16:04:08;10.38;;;2.78;;
21816;SDS011;13247;47.504;7.382;2023-05-29T16:06:53;4.85;;;3.17;;
21816;SDS011;13247;47.504;7.382;2023-05-29T16:09:38;8.57;;;2.78;;
21816;SDS011;13247;47.504;7.382;2023-05-29T16:12:25;6.03;;;3.15;;
21816;SDS011;13247;47.504;7.382;2023-05-29T16:15:10;4.45;;;2.83;;
21816;SDS011;13247;47.504;7.382;2023-05-29T16:17:56;6.82;;;2.83;;
21816;SDS011;13247;47.504;7.382;2023-05-29T16:20:42;4.03;;;2.60;;
21816;SDS011;13247;47.504;7.382;2023-05-29T16:23:26;7.50;;;2.55;;
21816;SDS011;13247;47.504;7.382;2023-05-29T16:26:11;10.65;;;3.55;;
21816;SDS011;13247;47.504;7.382;2023-05-29T16:28:57;5.32;;;2.90;;
21816;SDS011;13247;47.504;7.382;2023-05-29T16:31:43;5.95;;;2.75;;
21816;SDS011;13247;47.504;7.382;2023-05-29T16:34:28;4.57;;;2.83;;
21816;SDS011;13247;47.504;7.382;2023-05-29T16:37:13;4.45;;;2.95;;
21816;SDS011;13247;47.504;7.382;2023-05-29T16:39:58;7.20;;;2.65;;
21816;SDS011;13247;47.504;7.382;2023-05-29T16:42:43;4.60;;;2.42;;
21816;SDS011;13247;47.504;7.382;2023-05-29T16:45:28;5.85;;;3.17;;
21816;SDS011;13247;47.504;7.382;2023-05-29T16:48:13;5.18;;;2.58;;
21816;SDS011;13247;47.504;7.382;2023-05-29T16:50:59;7.72;;;2.83;;
21816;SDS011;13247;47.504;7.382;2023-05-29T16:53:43;4.60;;;3.10;;
21816;SDS011;13247;47.504;7.382;2023-05-29T16:56:28;4.90;;;2.70;;
21816;SDS011;13247;47.504;7.382;2023-05-29T16:59:13;6.30;;;2.53;;